EGNS

Isle of Man Airport

Castletown, Isle of Man
METAR EGNS 190450Z 19022KT 9999 -RA FEW015 15/13 Q1000 BECMG 19032G43KT
Observed Flight Rules
Sep-19 @ 04:50 UTC (23 minutes ago) Visual Flight Rules
Wind Visibility Clouds Conditions
190° at 22 knots 10,000+ meters
  • Few at 1,500' AGL
  • Light Rain
Temperatures Readings
Current 15°C / 59°F
Dewpoint 13°C / 55°F
Humidity 88%
Altimeter 29.53" Hg
Pressure 1000 hPa
Elevation 17
METAR EGNS 190450Z 19022KT 9999 -RA FEW015 15/13 Q1000 BECMG 19032G43KT
Observed Flight Rules
Sep-19 @ 04:50 UTC
(23 minutes ago)
VFR
Wind Visibility
190° at 22 knots 10,000+ meters
Clouds
  • Few at 1,500' AGL
Conditions
  • Light Rain
Temperature Dewpoint
15°C / 59°F 13°C / 55°F
Humidity Altimeter Pressure
88% 29.53" Hg 1000 hPa